Time;durP1;ratioP1;P1;durP2;ratioP2;P2;SDS_P1;SDS_P2;PMS_P1;PMS_P2;Temp;Humidity;BMP_temperature;BMP_pressure;BME280_temperature;BME280_humidity;BME280_pressure;Samples;Min_cycle;Max_cycle;Signal;HPM_P1;HPM_P2
2024/03/30 00:00:13;;;;;;;;;;;12.30;63.40;;;;;;5066813;28;19942;-76
2024/03/30 00:02:39;;;;;;;;;;;12.30;63.40;;;;;;5069012;28;19920;-76
2024/03/30 00:05:05;;;;;;;;;;;12.30;63.50;;;;;;5071753;28;20139;-70
2024/03/30 00:07:31;;;;;;;;;;;12.20;63.10;;;;;;5070328;28;19920;-76
2024/03/30 00:09:56;;;;;;;;;;;12.20;63.90;;;;;;5070807;28;19916;-70
2024/03/30 00:12:22;;;;;;;;;;;12.20;63.90;;;;;;5071857;28;19920;-76
2024/03/30 00:14:49;;;;;;;;;;;12.20;63.80;;;;;;5072163;28;19912;-76
2024/03/30 00:17:15;;;;;;;;;;;12.10;63.90;;;;;;5070513;28;20296;-69
2024/03/30 00:19:42;;;;;;;;;;;12.10;64.20;;;;;;5071333;28;19912;-76
2024/03/30 00:22:08;;;;;;;;;;;12.00;64.20;;;;;;5069082;28;20446;-77
2024/03/30 00:24:34;;;;;;;;;;;12.00;64.60;;;;;;5070568;28;20198;-76
2024/03/30 00:27:00;;;;;;;;;;;12.00;64.80;;;;;;5072076;28;19920;-70
2024/03/30 00:29:26;;;;;;;;;;;12.00;64.90;;;;;;5070946;28;19916;-70
2024/03/30 00:31:51;;;;;;;;;;;11.90;65.20;;;;;;5070090;28;19920;-76
2024/03/30 00:34:17;;;;;;;;;;;11.90;65.10;;;;;;5071269;28;20361;-70
2024/03/30 00:36:43;;;;;;;;;;;11.90;65.20;;;;;;5071107;28;19920;-77
2024/03/30 00:39:11;;;;;;;;;;;11.90;65.40;;;;;;5071314;28;19918;-70
2024/03/30 00:41:38;;;;;;;;;;;11.80;65.30;;;;;;5069382;28;19926;-69
2024/03/30 00:44:04;;;;;;;;;;;11.80;65.30;;;;;;5071030;28;20343;-70
2024/03/30 00:46:31;;;;;;;;;;;11.80;65.20;;;;;;5069877;28;19919;-70
2024/03/30 00:48:57;;;;;;;;;;;11.70;65.50;;;;;;5053092;28;19917;-77
2024/03/30 00:51:23;;;;;;;;;;;11.70;65.30;;;;;;5070725;28;19923;-70
2024/03/30 00:53:48;;;;;;;;;;;11.70;65.70;;;;;;5069599;28;20292;-69
2024/03/30 00:56:14;;;;;;;;;;;11.70;65.50;;;;;;5070271;28;20307;-70
2024/03/30 00:58:40;;;;;;;;;;;11.70;65.60;;;;;;5070252;28;19916;-76
2024/03/30 01:01:08;;;;;;;;;;;11.70;65.50;;;;;;5069380;28;19916;-70
2024/03/30 01:03:34;;;;;;;;;;;11.60;65.60;;;;;;5071332;28;19926;-70
2024/03/30 01:06:00;;;;;;;;;;;11.60;65.90;;;;;;5052778;28;19912;-75
2024/03/30 01:08:26;;;;;;;;;;;11.60;65.70;;;;;;5069945;28;19927;-70
2024/03/30 01:11:13;;;;;;;;;;;11.60;65.90;;;;;;5069229;28;19917;-76
2024/03/30 01:13:39;;;;;;;;;;;11.60;66.20;;;;;;5053139;28;20337;-70
2024/03/30 01:16:23;;;;;;;;;;;11.60;66.50;;;;;;5069543;28;19912;-75
2024/03/30 01:18:49;;;;;;;;;;;11.60;65.80;;;;;;5070797;28;20342;-71
2024/03/30 01:21:16;;;;;;;;;;;11.60;65.70;;;;;;5069439;28;19920;-76
2024/03/30 01:23:43;;;;;;;;;;;11.60;65.50;;;;;;5071364;28;19916;-76
2024/03/30 01:26:12;;;;;;;;;;;11.50;66.00;;;;;;5071840;28;19916;-77
2024/03/30 01:28:39;;;;;;;;;;;11.50;66.70;;;;;;5070262;28;20344;-70
2024/03/30 01:31:05;;;;;;;;;;;11.40;66.20;;;;;;5069859;28;19964;-76
2024/03/30 01:33:31;;;;;;;;;;;11.40;66.60;;;;;;5073334;28;19981;-76
2024/03/30 01:35:57;;;;;;;;;;;11.30;66.70;;;;;;5074996;28;19971;-70
2024/03/30 01:38:23;;;;;;;;;;;11.30;67.80;;;;;;5075275;28;20327;-70
2024/03/30 01:40:50;;;;;;;;;;;11.30;67.50;;;;;;5074356;28;20408;-70
2024/03/30 01:43:16;;;;;;;;;;;11.30;67.40;;;;;;5073672;28;19931;-76
2024/03/30 01:45:42;;;;;;;;;;;11.30;67.20;;;;;;5056729;28;20332;-75
2024/03/30 01:48:11;;;;;;;;;;;11.30;66.80;;;;;;5075045;28;19917;-77
2024/03/30 01:50:56;;;;;;;;;;;11.30;66.50;;;;;;5072904;28;19943;-76
2024/03/30 01:53:25;;;;;;;;;;;11.30;66.70;;;;;;5073640;28;20274;-70
2024/03/30 01:55:52;;;;;;;;;;;11.30;66.70;;;;;;5073125;28;19916;-75
2024/03/30 01:58:22;;;;;;;;;;;11.20;66.50;;;;;;5056536;28;19926;-69
2024/03/30 02:00:48;;;;;;;;;;;11.20;67.10;;;;;;5074011;28;19947;-75
2024/03/30 02:03:15;;;;;;;;;;;11.10;67.20;;;;;;5073032;28;19921;-69
2024/03/30 02:05:41;;;;;;;;;;;11.10;67.70;;;;;;5073942;28;20364;-77
2024/03/30 02:08:08;;;;;;;;;;;11.00;66.90;;;;;;5074718;28;19920;-69
2024/03/30 02:10:34;;;;;;;;;;;11.00;67.60;;;;;;5072261;28;19924;-76
2024/03/30 02:13:00;;;;;;;;;;;11.00;67.60;;;;;;5072693;28;20403;-75
2024/03/30 02:15:26;;;;;;;;;;;10.90;67.80;;;;;;5055815;28;19947;-76
2024/03/30 02:17:51;;;;;;;;;;;10.90;67.90;;;;;;5072371;28;19920;-76
2024/03/30 02:20:17;;;;;;;;;;;10.90;68.00;;;;;;5073327;28;19919;-69
2024/03/30 02:23:02;;;;;;;;;;;10.80;67.70;;;;;;5074064;28;19924;-70
2024/03/30 02:25:28;;;;;;;;;;;10.80;67.90;;;;;;5055222;28;19919;-69
2024/03/30 02:27:54;;;;;;;;;;;10.80;67.60;;;;;;5072038;28;20312;-69
2024/03/30 02:30:38;;;;;;;;;;;10.80;67.50;;;;;;5073234;28;19919;-69
2024/03/30 02:33:04;;;;;;;;;;;10.70;67.10;;;;;;5072823;28;19966;-76
2024/03/30 02:35:31;;;;;;;;;;;10.50;67.40;;;;;;5073816;28;19920;-70
2024/03/30 02:37:57;;;;;;;;;;;10.50;67.40;;;;;;5072739;28;19927;-69
2024/03/30 02:40:23;;;;;;;;;;;10.50;66.70;;;;;;5071888;28;20011;-74
2024/03/30 02:42:50;;;;;;;;;;;10.50;67.20;;;;;;5073993;28;19924;-76
2024/03/30 02:45:16;;;;;;;;;;;10.50;67.40;;;;;;5072665;28;19924;-76
2024/03/30 02:47:42;;;;;;;;;;;10.50;67.50;;;;;;5054859;28;19916;-70
2024/03/30 02:50:08;;;;;;;;;;;10.50;67.50;;;;;;5072541;28;19923;-71
2024/03/30 02:52:34;;;;;;;;;;;10.40;67.60;;;;;;5072969;28;19974;-77
2024/03/30 02:55:00;;;;;;;;;;;10.40;67.80;;;;;;5071293;28;19916;-76
2024/03/30 02:57:25;;;;;;;;;;;10.40;67.90;;;;;;5072539;28;20391;-76
2024/03/30 02:59:51;;;;;;;;;;;10.30;68.30;;;;;;5071445;28;20285;-76
2024/03/30 03:02:18;;;;;;;;;;;10.30;68.60;;;;;;5070792;28;19921;-70
2024/03/30 03:04:43;;;;;;;;;;;10.30;68.20;;;;;;5071025;28;19916;-69
2024/03/30 03:07:09;;;;;;;;;;;10.30;68.20;;;;;;5072634;28;20262;-70
2024/03/30 03:09:35;;;;;;;;;;;10.30;68.40;;;;;;5071359;28;19912;-70
2024/03/30 03:12:03;;;;;;;;;;;10.20;68.90;;;;;;5072282;28;19920;-76
2024/03/30 03:14:29;;;;;;;;;;;10.10;68.20;;;;;;5072257;28;20422;-70
2024/03/30 03:16:55;;;;;;;;;;;10.10;68.30;;;;;;5072395;28;20024;-76
2024/03/30 03:19:20;;;;;;;;;;;10.10;68.80;;;;;;5072639;28;20369;-70
2024/03/30 03:21:46;;;;;;;;;;;10.10;68.50;;;;;;5070917;28;19966;-76
2024/03/30 03:24:13;;;;;;;;;;;10.10;68.60;;;;;;5072657;28;19919;-77
2024/03/30 03:26:39;;;;;;;;;;;10.00;68.10;;;;;;5054280;28;20285;-70
2024/03/30 03:29:05;;;;;;;;;;;10.10;68.70;;;;;;5070847;28;20010;-70
2024/03/30 03:31:31;;;;;;;;;;;10.00;69.00;;;;;;5070254;28;20224;-70
2024/03/30 03:33:57;;;;;;;;;;;10.00;69.60;;;;;;5070766;28;20395;-70
2024/03/30 03:36:23;;;;;;;;;;;10.00;68.70;;;;;;5071888;28;19912;-70
2024/03/30 03:38:49;;;;;;;;;;;10.00;68.90;;;;;;5070728;28;19921;-70
2024/03/30 03:41:15;;;;;;;;;;;10.00;68.80;;;;;;5071373;28;19922;-75
2024/03/30 03:43:42;;;;;;;;;;;9.90;69.20;;;;;;5070330;28;19969;-70
2024/03/30 03:46:08;;;;;;;;;;;9.90;69.60;;;;;;5070587;28;20023;-71
2024/03/30 03:48:34;;;;;;;;;;;9.90;70.00;;;;;;5072115;28;19920;-76
2024/03/30 03:50:59;;;;;;;;;;;9.90;68.90;;;;;;5071349;28;19920;-70
2024/03/30 03:53:25;;;;;;;;;;;9.80;69.30;;;;;;5072064;28;19920;-69
2024/03/30 03:55:51;;;;;;;;;;;9.80;69.00;;;;;;5070619;28;19916;-69
2024/03/30 03:58:17;;;;;;;;;;;9.80;69.20;;;;;;5072041;28;20011;-74
2024/03/30 04:00:43;;;;;;;;;;;9.80;69.20;;;;;;5069875;28;20497;-76
2024/03/30 04:03:09;;;;;;;;;;;9.80;69.20;;;;;;5072039;28;19917;-69
2024/03/30 04:05:36;;;;;;;;;;;9.80;69.50;;;;;;5071532;28;19920;-71
2024/03/30 04:08:02;;;;;;;;;;;9.70;69.40;;;;;;5070981;28;19917;-76
2024/03/30 04:10:28;;;;;;;;;;;9.70;69.00;;;;;;5069757;28;20304;-75
2024/03/30 04:12:54;;;;;;;;;;;9.70;69.90;;;;;;5053852;28;19920;-77
2024/03/30 04:15:20;;;;;;;;;;;9.70;70.10;;;;;;5071925;28;20438;-76
2024/03/30 04:17:47;;;;;;;;;;;9.70;69.40;;;;;;5053842;28;19929;-77
2024/03/30 04:20:13;;;;;;;;;;;9.70;69.20;;;;;;5070832;28;19920;-70
2024/03/30 04:22:39;;;;;;;;;;;9.70;68.90;;;;;;5070151;28;20034;-77
2024/03/30 04:25:06;;;;;;;;;;;9.60;69.30;;;;;;5053140;28;19916;-70
2024/03/30 04:27:32;;;;;;;;;;;9.60;68.80;;;;;;5070125;28;20273;-69
2024/03/30 04:29:58;;;;;;;;;;;9.60;69.50;;;;;;5070130;28;19916;-70
2024/03/30 04:32:24;;;;;;;;;;;9.60;69.60;;;;;;5069603;28;19989;-70
2024/03/30 04:34:50;;;;;;;;;;;9.50;69.90;;;;;;5070031;28;19952;-73
2024/03/30 04:37:16;;;;;;;;;;;9.50;69.90;;;;;;5071422;28;20683;-70
2024/03/30 04:39:42;;;;;;;;;;;9.50;70.40;;;;;;5053255;28;19969;-76
2024/03/30 04:42:09;;;;;;;;;;;9.50;70.10;;;;;;5069351;28;19924;-70
2024/03/30 04:44:36;;;;;;;;;;;9.50;69.20;;;;;;5070915;28;20310;-76
2024/03/30 04:47:02;;;;;;;;;;;9.50;69.60;;;;;;5069964;28;20122;-69
2024/03/30 04:49:28;;;;;;;;;;;9.40;69.60;;;;;;5069930;28;19920;-70
2024/03/30 04:51:55;;;;;;;;;;;9.40;69.90;;;;;;5069459;28;20028;-70
2024/03/30 04:54:21;;;;;;;;;;;9.40;69.90;;;;;;5053142;28;20011;-70
2024/03/30 04:56:47;;;;;;;;;;;9.40;69.70;;;;;;5071083;28;20424;-76
2024/03/30 04:59:13;;;;;;;;;;;9.40;69.70;;;;;;5069826;28;20294;-76
2024/03/30 05:01:40;;;;;;;;;;;9.50;69.80;;;;;;5070534;28;19961;-76
2024/03/30 05:04:06;;;;;;;;;;;9.40;69.70;;;;;;5069654;28;20377;-70
2024/03/30 05:06:32;;;;;;;;;;;9.40;69.60;;;;;;5071367;28;19965;-76
2024/03/30 05:08:57;;;;;;;;;;;9.40;69.80;;;;;;5074644;28;19920;-76
2024/03/30 05:11:23;;;;;;;;;;;9.40;69.90;;;;;;5072867;28;19927;-70
2024/03/30 05:13:50;;;;;;;;;;;9.40;70.50;;;;;;5073277;28;19920;-77
2024/03/30 05:16:16;;;;;;;;;;;9.40;70.70;;;;;;5073138;28;19912;-70
2024/03/30 05:18:41;;;;;;;;;;;9.50;70.30;;;;;;5075046;28;19923;-77
2024/03/30 05:21:07;;;;;;;;;;;9.50;70.00;;;;;;5072837;28;19916;-76
2024/03/30 05:23:34;;;;;;;;;;;9.60;69.70;;;;;;5073423;28;19927;-76
2024/03/30 05:26:19;;;;;;;;;;;9.60;69.30;;;;;;5073019;28;20399;-77
2024/03/30 05:28:45;;;;;;;;;;;9.70;69.30;;;;;;5073215;28;19981;-70
2024/03/30 05:31:20;;;;;;;;;;;9.70;69.30;;;;;;5074277;28;19917;-70
2024/03/30 05:33:46;;;;;;;;;;;9.80;69.20;;;;;;5073493;28;19924;-76
2024/03/30 05:36:14;;;;;;;;;;;9.80;69.10;;;;;;5074510;28;19923;-71
2024/03/30 05:38:40;;;;;;;;;;;9.90;69.10;;;;;;5074640;28;19924;-69
2024/03/30 05:41:06;;;;;;;;;;;9.90;68.40;;;;;;5055610;28;19974;-69
2024/03/30 05:43:32;;;;;;;;;;;10.00;69.00;;;;;;5072971;28;19924;-75
2024/03/30 05:45:58;;;;;;;;;;;10.00;69.10;;;;;;5073888;28;19913;-76
2024/03/30 05:48:24;;;;;;;;;;;10.10;69.10;;;;;;5073974;28;20010;-69
2024/03/30 05:50:50;;;;;;;;;;;10.10;68.40;;;;;;5072296;28;19916;-76
2024/03/30 05:53:16;;;;;;;;;;;10.20;68.40;;;;;;5072723;28;20312;-69
2024/03/30 05:55:42;;;;;;;;;;;10.30;69.00;;;;;;5073744;28;19918;-76
2024/03/30 06:00:53;;;;;;;;;;;10.50;68.60;;;;;;5072170;28;19923;-72
2024/03/30 06:03:18;;;;;;;;;;;10.60;68.80;;;;;;5074258;28;19920;-69
2024/03/30 06:05:45;;;;;;;;;;;10.70;68.80;;;;;;5073662;28;20007;-70
2024/03/30 06:08:10;;;;;;;;;;;10.70;68.50;;;;;;5072367;28;19973;-69
2024/03/30 06:10:36;;;;;;;;;;;10.70;68.50;;;;;;5073125;28;20349;-70
2024/03/30 06:13:02;;;;;;;;;;;10.80;68.70;;;;;;5072417;28;19921;-77
2024/03/30 06:15:28;;;;;;;;;;;10.80;68.60;;;;;;5055390;28;19924;-69
2024/03/30 06:17:54;;;;;;;;;;;10.80;68.50;;;;;;5073215;28;20280;-76
2024/03/30 06:20:20;;;;;;;;;;;10.90;68.60;;;;;;5071501;28;20313;-76
2024/03/30 06:22:46;;;;;;;;;;;11.00;68.50;;;;;;5072243;28;19930;-70
2024/03/30 06:25:12;;;;;;;;;;;11.10;68.60;;;;;;5072963;28;19920;-70
2024/03/30 06:27:38;;;;;;;;;;;11.20;68.60;;;;;;5073483;28;19921;-76
2024/03/30 06:30:04;;;;;;;;;;;11.30;68.70;;;;;;5072739;28;20370;-76
2024/03/30 06:32:30;;;;;;;;;;;11.30;68.90;;;;;;5073306;28;19927;-73
2024/03/30 06:34:56;;;;;;;;;;;11.50;69.00;;;;;;5073359;28;19913;-70
2024/03/30 06:37:22;;;;;;;;;;;11.60;68.60;;;;;;5073226;28;19928;-76
2024/03/30 06:45:16;;;;;;;;;;;12.00;68.40;;;;;;5072703;28;19923;-77
2024/03/30 06:47:42;;;;;;;;;;;12.20;67.50;;;;;;5071657;28;20296;-77
2024/03/30 06:50:08;;;;;;;;;;;12.30;67.00;;;;;;5072162;28;19914;-76
2024/03/30 06:52:34;;;;;;;;;;;12.50;67.30;;;;;;5073065;28;19924;-70
2024/03/30 06:55:00;;;;;;;;;;;12.60;67.00;;;;;;5071502;28;20292;-70
2024/03/30 06:57:26;;;;;;;;;;;12.80;66.80;;;;;;5071280;28;19990;-70
2024/03/30 06:59:52;;;;;;;;;;;12.90;66.40;;;;;;5072813;28;19977;-70
2024/03/30 07:02:17;;;;;;;;;;;13.10;66.40;;;;;;5072344;28;20333;-70
2024/03/30 07:04:43;;;;;;;;;;;13.20;66.20;;;;;;5060805;28;19917;-76
2024/03/30 07:07:09;;;;;;;;;;;13.30;65.90;;;;;;5068601;28;19955;-76
2024/03/30 07:09:35;;;;;;;;;;;13.60;65.60;;;;;;5054858;28;20328;-70
2024/03/30 07:12:01;;;;;;;;;;;13.70;65.20;;;;;;5071442;28;20003;-71
2024/03/30 07:14:27;;;;;;;;;;;13.90;65.00;;;;;;5062614;28;20401;-70
2024/03/30 07:16:55;;;;;;;;;;;14.10;64.80;;;;;;5034298;28;19921;-69
2024/03/30 07:19:40;;;;;;;;;;;14.30;63.90;;;;;;5057965;28;20349;-70
2024/03/30 07:22:06;;;;;;;;;;;14.50;64.10;;;;;;5063711;28;20005;-70
2024/03/30 07:24:33;;;;;;;;;;;14.70;63.80;;;;;;5065468;28;20277;-76
2024/03/30 07:26:59;;;;;;;;;;;14.90;63.40;;;;;;5060297;28;19921;-76
2024/03/30 07:29:25;;;;;;;;;;;15.10;62.30;;;;;;5036378;28;20374;-76
2024/03/30 07:31:51;;;;;;;;;;;15.40;62.40;;;;;;5051729;28;19927;-70
2024/03/30 07:34:16;;;;;;;;;;;15.60;62.30;;;;;;5056915;28;20423;-75
2024/03/30 07:36:42;;;;;;;;;;;16.00;62.30;;;;;;5053563;28;19920;-76
2024/03/30 07:39:08;;;;;;;;;;;16.40;62.40;;;;;;5066069;28;20003;-70
2024/03/30 07:41:34;;;;;;;;;;;16.80;62.00;;;;;;5050121;28;20007;-70
2024/03/30 07:44:00;;;;;;;;;;;17.30;62.10;;;;;;5057411;28;20023;-70
2024/03/30 07:46:26;;;;;;;;;;;17.80;60.80;;;;;;5050198;28;20366;-75
2024/03/30 07:48:51;;;;;;;;;;;18.30;59.90;;;;;;5056697;28;19991;-76
2024/03/30 07:51:17;;;;;;;;;;;18.90;58.80;;;;;;5049891;28;19955;-70
2024/03/30 07:53:43;;;;;;;;;;;19.40;57.00;;;;;;5052730;28;19965;-76
2024/03/30 07:56:09;;;;;;;;;;;19.90;55.90;;;;;;5057018;28;19967;-70
2024/03/30 07:58:35;;;;;;;;;;;20.50;53.30;;;;;;5067033;28;19939;-72
2024/03/30 08:01:01;;;;;;;;;;;21.10;51.10;;;;;;5068261;28;20014;-71
2024/03/30 08:03:27;;;;;;;;;;;21.60;49.70;;;;;;5064894;28;19925;-70
2024/03/30 08:06:12;;;;;;;;;;;22.10;48.40;;;;;;5069611;28;19913;-76
2024/03/30 08:08:38;;;;;;;;;;;22.60;43.90;;;;;;5064736;28;19925;-76
2024/03/30 08:11:04;;;;;;;;;;;23.10;43.60;;;;;;5063820;28;19928;-71
2024/03/30 08:13:30;;;;;;;;;;;23.70;41.60;;;;;;5065011;28;20286;-76
2024/03/30 08:15:56;;;;;;;;;;;24.20;39.60;;;;;;5049790;28;19919;-76
2024/03/30 08:18:23;;;;;;;;;;;24.70;37.60;;;;;;5053227;28;20366;-76
2024/03/30 08:20:49;;;;;;;;;;;25.10;35.70;;;;;;5070755;28;19921;-71
2024/03/30 08:23:15;;;;;;;;;;;25.50;35.10;;;;;;5054529;28;19920;-76
2024/03/30 08:25:41;;;;;;;;;;;25.90;34.80;;;;;;5069769;28;19912;-71
2024/03/30 08:28:10;;;;;;;;;;;26.40;32.80;;;;;;5070095;28;20358;-71
2024/03/30 08:30:36;;;;;;;;;;;26.90;31.50;;;;;;5069466;28;19923;-76
2024/03/30 08:33:02;;;;;;;;;;;27.20;32.50;;;;;;5070487;28;19921;-72
2024/03/30 08:35:28;;;;;;;;;;;27.50;32.40;;;;;;5055555;28;19917;-72
2024/03/30 08:37:54;;;;;;;;;;;27.80;30.00;;;;;;5049971;28;19931;-72
2024/03/30 08:40:19;;;;;;;;;;;28.10;30.20;;;;;;5049733;28;20003;-72
2024/03/30 08:42:45;;;;;;;;;;;28.50;29.00;;;;;;5052419;28;20183;-71
2024/03/30 08:45:11;;;;;;;;;;;28.80;28.30;;;;;;5055079;28;20370;-72
2024/03/30 08:47:37;;;;;;;;;;;29.20;27.30;;;;;;5054146;28;19927;-72
2024/03/30 08:50:03;;;;;;;;;;;29.60;26.50;;;;;;5054771;28;19913;-75
2024/03/30 08:52:29;;;;;;;;;;;29.70;25.70;;;;;;5053826;28;19921;-72
2024/03/30 08:54:55;;;;;;;;;;;29.60;25.60;;;;;;5053587;28;19999;-76
2024/03/30 08:57:21;;;;;;;;;;;29.60;24.90;;;;;;5055168;28;20413;-75
2024/03/30 08:59:50;;;;;;;;;;;30.00;24.40;;;;;;5053883;28;19912;-75
2024/03/30 09:02:17;;;;;;;;;;;30.50;24.70;;;;;;5054540;28;19921;-76
2024/03/30 09:04:43;;;;;;;;;;;31.00;24.00;;;;;;5071993;28;19918;-76
2024/03/30 09:07:09;;;;;;;;;;;31.30;24.00;;;;;;5075004;28;19956;-71
2024/03/30 09:09:35;;;;;;;;;;;31.60;23.40;;;;;;5067201;28;19923;-76
2024/03/30 09:12:01;;;;;;;;;;;31.80;23.10;;;;;;5067921;28;20380;-72
2024/03/30 09:14:26;;;;;;;;;;;32.10;22.90;;;;;;5055008;28;20293;-72
2024/03/30 09:16:52;;;;;;;;;;;32.50;23.00;;;;;;5074453;28;19930;-72
2024/03/30 09:19:18;;;;;;;;;;;32.70;21.30;;;;;;5056511;28;19955;-66
2024/03/30 09:21:44;;;;;;;;;;;32.50;20.20;;;;;;5073021;28;19921;-67
2024/03/30 09:24:10;;;;;;;;;;;32.20;20.90;;;;;;5074281;28;20007;-67
2024/03/30 09:26:36;;;;;;;;;;;31.90;19.40;;;;;;5057757;28;19913;-73
2024/03/30 09:29:02;;;;;;;;;;;32.30;20.80;;;;;;5073005;28;19916;-73
2024/03/30 09:31:28;;;;;;;;;;;32.30;19.90;;;;;;5074322;28;19916;-73
2024/03/30 09:33:54;;;;;;;;;;;32.20;19.80;;;;;;5074640;28;19920;-67
2024/03/30 09:36:20;;;;;;;;;;;32.20;19.60;;;;;;5074321;28;20364;-73
2024/03/30 09:38:46;;;;;;;;;;;32.30;19.50;;;;;;5074194;28;19926;-72
2024/03/30 09:41:12;;;;;;;;;;;32.40;19.80;;;;;;5072525;28;19930;-67
2024/03/30 09:43:39;;;;;;;;;;;32.20;20.60;;;;;;5055921;28;19916;-73
2024/03/30 09:46:07;;;;;;;;;;;32.30;20.30;;;;;;5056024;28;20361;-67
2024/03/30 09:48:33;;;;;;;;;;;32.70;19.50;;;;;;5073059;28;19916;-73
2024/03/30 09:51:00;;;;;;;;;;;33.20;19.60;;;;;;5072363;28;19956;-67
2024/03/30 09:53:26;;;;;;;;;;;33.30;19.80;;;;;;5074379;28;19924;-72
2024/03/30 09:55:55;;;;;;;;;;;33.50;19.90;;;;;;5072544;28;19913;-72
2024/03/30 09:58:22;;;;;;;;;;;32.90;19.50;;;;;;5068145;28;20014;-67
2024/03/30 10:00:50;;;;;;;;;;;32.60;19.50;;;;;;5043907;28;19928;-73
2024/03/30 10:03:16;;;;;;;;;;;32.70;19.90;;;;;;5051282;28;19920;-67
2024/03/30 10:05:43;;;;;;;;;;;33.20;20.20;;;;;;5062728;28;19916;-67
2024/03/30 10:08:17;;;;;;;;;;;33.40;19.10;;;;;;5067413;28;20361;-67
2024/03/30 10:10:48;;;;;;;;;;;33.60;18.80;;;;;;5071667;28;19921;-67
2024/03/30 10:13:25;;;;;;;;;;;33.40;18.90;;;;;;5072530;28;19921;-73
2024/03/30 10:15:52;;;;;;;;;;;33.30;18.90;;;;;;5071326;28;19912;-71
2024/03/30 10:18:18;;;;;;;;;;;33.40;18.60;;;;;;5035799;28;19917;-73
2024/03/30 10:20:44;;;;;;;;;;;34.30;18.70;;;;;;5053397;28;20019;-67
2024/03/30 10:23:10;;;;;;;;;;;35.30;17.40;;;;;;5065472;28;19916;-74
2024/03/30 10:25:37;;;;;;;;;;;35.70;16.90;;;;;;5072416;28;20314;-67
2024/03/30 10:28:05;;;;;;;;;;;35.70;16.50;;;;;;5060158;28;19921;-74
2024/03/30 10:30:31;;;;;;;;;;;35.80;16.00;;;;;;5050266;28;19921;-67
2024/03/30 10:33:03;;;;;;;;;;;35.30;15.80;;;;;;5049380;28;19927;-67
2024/03/30 10:35:30;;;;;;;;;;;35.10;15.60;;;;;;5015694;28;19971;-67
2024/03/30 10:37:57;;;;;;;;;;;35.20;15.30;;;;;;5032070;28;20028;-67
2024/03/30 10:40:24;;;;;;;;;;;34.90;15.80;;;;;;5042930;28;19932;-74
2024/03/30 10:42:54;;;;;;;;;;;34.50;16.90;;;;;;5072430;28;19916;-73
2024/03/30 10:45:20;;;;;;;;;;;34.30;15.90;;;;;;5054539;28;20450;-73
2024/03/30 10:47:46;;;;;;;;;;;34.10;16.30;;;;;;5071804;28;20007;-66
2024/03/30 10:50:13;;;;;;;;;;;33.60;15.50;;;;;;5065996;28;20007;-67
2024/03/30 10:52:39;;;;;;;;;;;33.10;16.90;;;;;;5056431;28;19998;-73
2024/03/30 10:55:05;;;;;;;;;;;33.50;15.20;;;;;;5063199;28;19950;-67
2024/03/30 10:57:31;;;;;;;;;;;33.80;16.80;;;;;;5071875;28;19920;-74
2024/03/30 11:00:01;;;;;;;;;;;33.90;16.90;;;;;;5062221;28;20564;-67
2024/03/30 11:02:29;;;;;;;;;;;34.70;15.40;;;;;;5055969;28;19952;-67
2024/03/30 11:04:55;;;;;;;;;;;36.00;16.40;;;;;;5063927;28;19932;-73
2024/03/30 11:07:24;;;;;;;;;;;36.10;14.30;;;;;;5063540;28;19921;-67
2024/03/30 11:09:50;;;;;;;;;;;36.30;15.10;;;;;;5065440;28;19924;-73
2024/03/30 11:12:16;;;;;;;;;;;36.30;14.40;;;;;;5056811;28;19921;-67
2024/03/30 11:14:42;;;;;;;;;;;36.80;14.70;;;;;;5052316;28;20519;-74
2024/03/30 11:17:45;;;;;;;;;;;37.00;14.90;;;;;;5052382;28;19928;-73
2024/03/30 11:20:17;;;;;;;;;;;37.40;14.30;;;;;;5059485;28;19916;-67
2024/03/30 11:23:20;;;;;;;;;;;37.90;14.10;;;;;;5070077;28;20019;-67
2024/03/30 11:25:49;;;;;;;;;;;39.10;13.50;;;;;;5062815;28;19912;-74
2024/03/30 11:28:39;;;;;;;;;;;39.90;12.00;;;;;;5065927;28;20358;-67
2024/03/30 11:31:10;;;;;;;;;;;40.60;12.10;;;;;;5057181;28;19921;-68
2024/03/30 11:33:43;;;;;;;;;;;40.40;12.00;;;;;;5070020;28;19932;-68
2024/03/30 11:36:47;;;;;;;;;;;39.70;12.80;;;;;;5070836;28;19912;-74
2024/03/30 11:39:51;;;;;;;;;;;38.50;13.40;;;;;;5071993;28;20306;-74
2024/03/30 11:42:36;;;;;;;;;;;37.50;14.20;;;;;;5057283;28;19931;-74
2024/03/30 11:45:04;;;;;;;;;;;36.90;14.90;;;;;;5051874;28;20224;-68
2024/03/30 11:47:30;;;;;;;;;;;37.30;15.20;;;;;;5047070;28;19921;-75
2024/03/30 11:49:56;;;;;;;;;;;37.60;14.50;;;;;;5031779;28;20317;-68
2024/03/30 11:52:22;;;;;;;;;;;37.20;15.20;;;;;;5049206;28;20266;-74
2024/03/30 11:54:48;;;;;;;;;;;37.70;14.80;;;;;;5056624;28;19939;-68
2024/03/30 11:57:16;;;;;;;;;;;37.10;15.40;;;;;;5067956;28;19924;-74
2024/03/30 11:59:44;;;;;;;;;;;37.80;14.70;;;;;;5058353;28;19912;-74
2024/03/30 12:02:12;;;;;;;;;;;38.60;13.60;;;;;;5084297;28;19920;-68
2024/03/30 12:05:00;;;;;;;;;;;39.40;13.10;;;;;;5060516;28;19913;-68
2024/03/30 12:07:34;;;;;;;;;;;40.50;13.30;;;;;;5051378;28;20301;-68
2024/03/30 12:10:19;;;;;;;;;;;41.30;12.30;;;;;;5051576;28;20167;-75
2024/03/30 12:12:44;;;;;;;;;;;41.70;11.50;;;;;;5041364;28;19928;-68
2024/03/30 12:15:11;;;;;;;;;;;42.40;11.40;;;;;;5051123;28;19982;-68
2024/03/30 12:17:38;;;;;;;;;;;43.40;10.60;;;;;;5049391;28;19952;-74
2024/03/30 12:20:05;;;;;;;;;;;44.00;11.00;;;;;;5049892;28;20003;-75
2024/03/30 12:22:31;;;;;;;;;;;43.80;10.20;;;;;;5040925;28;19921;-75
2024/03/30 12:24:57;;;;;;;;;;;43.60;10.10;;;;;;5050803;28;20301;-68
2024/03/30 12:27:24;;;;;;;;;;;43.10;10.40;;;;;;5044854;28;19921;-74
2024/03/30 12:29:50;;;;;;;;;;;43.70;10.00;;;;;;5051196;28;20004;-68
2024/03/30 12:32:16;;;;;;;;;;;43.40;9.80;;;;;;5046261;28;20361;-68
2024/03/30 12:34:42;;;;;;;;;;;43.70;9.50;;;;;;5048251;28;19924;-68
2024/03/30 12:37:08;;;;;;;;;;;43.60;10.50;;;;;;5046474;28;20289;-75
2024/03/30 12:39:35;;;;;;;;;;;41.70;10.90;;;;;;5033358;28;19917;-74
2024/03/30 12:42:01;;;;;;;;;;;40.70;12.30;;;;;;5032389;28;20369;-68
2024/03/30 12:44:27;;;;;;;;;;;39.00;12.60;;;;;;5049766;28;19947;-68
2024/03/30 12:46:53;;;;;;;;;;;38.60;13.80;;;;;;5038664;28;20450;-68
2024/03/30 12:49:19;;;;;;;;;;;38.90;13.20;;;;;;5029695;28;19985;-68
2024/03/30 12:51:46;;;;;;;;;;;38.80;13.70;;;;;;5033279;28;19967;-72
2024/03/30 12:54:13;;;;;;;;;;;38.40;13.50;;;;;;5035914;28;19917;-68
2024/03/30 12:56:39;;;;;;;;;;;38.70;13.80;;;;;;5050493;28;19959;-68
2024/03/30 12:59:05;;;;;;;;;;;38.80;12.90;;;;;;5049050;28;19917;-75
2024/03/30 13:01:31;;;;;;;;;;;38.70;12.70;;;;;;5032325;28;19935;-68
2024/03/30 13:04:15;;;;;;;;;;;38.20;13.60;;;;;;5049844;28;20429;-67
2024/03/30 13:06:43;;;;;;;;;;;38.20;14.70;;;;;;5040278;28;19988;-68
2024/03/30 13:09:36;;;;;;;;;;;39.20;13.30;;;;;;5029654;28;19964;-67
2024/03/30 13:12:02;;;;;;;;;;;40.10;13.20;;;;;;5056164;28;19921;-68
2024/03/30 13:14:28;;;;;;;;;;;41.40;12.50;;;;;;5052990;28;19917;-75
2024/03/30 13:17:03;;;;;;;;;;;41.50;12.60;;;;;;5070985;28;19931;-75
2024/03/30 13:19:31;;;;;;;;;;;41.20;12.60;;;;;;5076393;28;20317;-68
2024/03/30 13:21:57;;;;;;;;;;;41.20;12.80;;;;;;5049302;28;20274;-75
2024/03/30 13:24:23;;;;;;;;;;;41.90;11.70;;;;;;5055445;28;20357;-74
2024/03/30 13:26:49;;;;;;;;;;;42.40;10.70;;;;;;5065974;28;19921;-74
2024/03/30 13:29:15;;;;;;;;;;;43.10;11.30;;;;;;5053729;28;19917;-68
2024/03/30 13:31:41;;;;;;;;;;;43.60;10.90;;;;;;5053507;28;19939;-74
2024/03/30 13:34:07;;;;;;;;;;;44.00;10.70;;;;;;5066058;28;20321;-75
2024/03/30 13:36:32;;;;;;;;;;;44.20;10.90;;;;;;5069235;28;20039;-68
2024/03/30 13:38:58;;;;;;;;;;;44.40;10.20;;;;;;5072089;28;20292;-68
2024/03/30 13:41:24;;;;;;;;;;;44.10;10.30;;;;;;5058141;28;20800;-75
2024/03/30 13:43:50;;;;;;;;;;;43.90;10.10;;;;;;5070143;28;19931;-68
2024/03/30 13:46:16;;;;;;;;;;;44.00;10.60;;;;;;5073568;28;20354;-68
2024/03/30 13:48:42;;;;;;;;;;;44.30;10.60;;;;;;5072120;28;20300;-68
2024/03/30 13:51:07;;;;;;;;;;;44.50;10.50;;;;;;5057368;28;19927;-74
2024/03/30 13:53:33;;;;;;;;;;;44.50;10.00;;;;;;5066212;28;19927;-67
2024/03/30 13:55:59;;;;;;;;;;;44.40;10.40;;;;;;5066525;28;19923;-74
2024/03/30 13:58:27;;;;;;;;;;;44.00;10.20;;;;;;5062980;28;20336;-68
2024/03/30 14:00:53;;;;;;;;;;;43.20;11.20;;;;;;5067251;28;19926;-68
2024/03/30 14:03:20;;;;;;;;;;;42.70;10.80;;;;;;5073834;28;20361;-68
2024/03/30 14:05:47;;;;;;;;;;;41.80;11.30;;;;;;5065180;28;20010;-74
2024/03/30 14:08:13;;;;;;;;;;;41.60;10.70;;;;;;5072486;28;19989;-67
2024/03/30 14:10:39;;;;;;;;;;;42.10;10.90;;;;;;5057412;28;19925;-67
2024/03/30 14:13:05;;;;;;;;;;;42.30;11.40;;;;;;5052404;28;19928;-75
2024/03/30 14:15:31;;;;;;;;;;;41.50;11.60;;;;;;5054227;28;20287;-68
2024/03/30 14:17:57;;;;;;;;;;;40.50;12.80;;;;;;5072317;28;19920;-67
2024/03/30 14:20:22;;;;;;;;;;;39.30;13.90;;;;;;5062870;28;19920;-74
2024/03/30 14:22:48;;;;;;;;;;;38.00;14.60;;;;;;5062948;28;19924;-68
2024/03/30 14:25:14;;;;;;;;;;;37.10;15.00;;;;;;5061680;28;20015;-68
2024/03/30 14:27:40;;;;;;;;;;;36.30;15.50;;;;;;5068932;28;20392;-67